Time;durP1;ratioP1;P1;durP2;ratioP2;P2;SDS_P1;SDS_P2;PMS_P1;PMS_P2;Temp;Humidity;BMP_temperature;BMP_pressure;BME280_temperature;BME280_humidity;BME280_pressure;Samples;Min_cycle;Max_cycle;Signal;HPM_P1;HPM_P2
2024/03/08 00:00:46;;;;;;;44.35;15.38;;;0.70;99.90;;;-0.85;100.00;102179.53;4869699;29;20107;-82
2024/03/08 00:03:12;;;;;;;48.00;16.48;;;0.80;99.90;;;-0.77;100.00;102184.03;4865885;29;20427;-81
2024/03/08 00:05:38;;;;;;;48.25;16.27;;;0.80;99.90;;;-0.73;100.00;102176.38;4903865;29;20040;-82
2024/03/08 00:08:13;;;;;;;45.67;15.65;;;0.80;99.90;;;-0.72;100.00;102180.72;4842191;29;20459;-81
2024/03/08 00:10:39;;;;;;;40.90;15.83;;;;;;;-0.69;100.00;102179.91;4855941;29;20578;-81
2024/03/08 00:13:06;;;;;;;42.80;15.30;;;0.90;99.90;;;-0.70;100.00;102179.03;4856506;29;20036;-81
2024/03/08 00:15:41;;;;;;;49.38;16.13;;;0.90;99.90;;;-0.70;100.00;102181.63;4882594;29;20407;-81
2024/03/08 00:18:07;;;;;;;56.90;17.00;;;0.90;99.90;;;-0.71;100.00;102172.13;4889335;29;20040;-82
2024/03/08 00:20:33;;;;;;;50.28;17.73;;;0.90;99.90;;;-0.68;100.00;102182.53;4868161;29;20051;-81
2024/03/08 00:23:06;;;;;;;55.08;17.13;;;0.90;99.90;;;-0.67;100.00;102181.72;4854853;29;20032;-82
2024/03/08 00:25:32;;;;;;;43.58;16.27;;;0.90;99.90;;;-0.66;100.00;102183.44;4880447;29;20430;-81
2024/03/08 00:27:59;;;;;;;62.78;17.55;;;0.90;99.90;;;-0.67;100.00;102179.13;4892674;29;20040;-81
2024/03/08 00:30:25;;;;;;;51.78;16.42;;;1.30;99.90;;;-0.65;100.00;102177.44;4861442;29;20061;-81
2024/03/08 00:33:00;;;;;;;56.88;16.73;;;0.90;99.90;;;-0.65;100.00;102177.44;4858737;29;20115;-81
2024/03/08 00:35:26;;;;;;;53.35;16.30;;;0.90;99.90;;;-0.64;100.00;102183.47;4841498;29;20041;-82
2024/03/08 00:37:52;;;;;;;47.33;16.42;;;0.90;99.90;;;-0.63;100.00;102183.53;4890577;29;20066;-83
2024/03/08 00:40:17;;;;;;;56.10;17.63;;;1.00;99.90;;;-0.63;100.00;102174.88;4881584;29;20044;-82
2024/03/08 00:42:49;;;;;;;53.55;17.48;;;1.00;99.90;;;-0.62;100.00;102179.22;4862743;29;20056;-82
2024/03/08 00:45:15;;;;;;;57.67;16.38;;;0.90;99.90;;;-0.63;100.00;102175.78;4855006;29;20171;-83
2024/03/08 00:47:43;;;;;;;44.17;16.38;;;0.90;99.90;;;-0.67;100.00;102173.94;4856798;29;20044;-81
2024/03/08 00:50:18;;;;;;;48.80;17.25;;;0.90;99.90;;;-0.68;100.00;102179.06;4838320;29;20042;-83
2024/03/08 00:52:44;;;;;;;46.03;16.63;;;0.90;99.90;;;-0.71;100.00;102179.88;4882781;29;20040;-82
2024/03/08 00:55:11;;;;;;;45.80;15.82;;;0.90;99.90;;;-0.74;100.00;102172.03;4905238;29;20272;-83
2024/03/08 00:57:38;;;;;;;43.85;16.63;;;0.80;99.90;;;-0.75;100.00;102172.03;4870167;29;20492;-84
2024/03/08 01:00:12;;;;;;;56.03;18.65;;;;;;;-0.72;100.00;102172.94;4888595;29;20042;-83
2024/03/08 01:02:39;;;;;;;58.15;19.23;;;0.90;99.90;;;-0.72;100.00;102162.59;4849574;29;20494;-85
2024/03/08 01:05:12;;;;;;;54.85;18.48;;;0.90;99.90;;;-0.64;100.00;102176.59;4843029;29;20037;-83
2024/03/08 01:07:40;;;;;;;62.45;19.98;;;0.90;99.90;;;-0.61;100.00;102165.44;4852408;29;20070;-84
2024/03/08 01:10:09;;;;;;;67.13;19.63;;;1.00;99.90;;;-0.55;100.00;102160.41;4847308;29;20041;-85
2024/03/08 01:12:43;;;;;;;68.30;20.55;;;1.00;99.90;;;-0.49;100.00;102165.72;4881673;29;20036;-83
2024/03/08 01:15:11;;;;;;;104.03;34.30;;;1.10;99.90;;;-0.42;100.00;102166.72;4871165;29;20044;-85
2024/03/08 01:17:50;;;;;;;176.43;60.53;;;1.10;99.90;;;-0.41;100.00;102160.72;4849584;29;20040;-84
2024/03/08 01:20:33;;;;;;;84.47;29.58;;;;;;;-0.38;100.00;102147.84;4823442;29;20092;-84
2024/03/08 01:23:21;;;;;;;95.72;31.40;;;;;;;-0.33;100.00;102146.19;4865850;29;20078;-85
2024/03/08 01:25:56;;;;;;;80.75;26.90;;;1.20;99.90;;;-0.28;100.00;102147.19;4910707;29;20059;-85
2024/03/08 01:28:49;;;;;;;83.55;27.75;;;1.30;99.90;;;-0.23;100.00;102148.16;4868354;29;20037;-84
2024/03/08 01:31:24;;;;;;;76.93;26.02;;;1.30;99.90;;;-0.19;100.00;102133.56;4837838;29;20060;-84
2024/03/08 01:33:50;;;;;;;90.97;24.93;;;;;;;-0.13;100.00;102140.56;4853398;29;20059;-87
2024/03/08 01:36:33;;;;;;;67.13;23.67;;;1.40;99.90;;;-0.13;100.00;102137.97;4848735;29;20340;-86
2024/03/08 01:39:26;;;;;;;78.85;23.05;;;;;;;-0.17;100.00;102128.38;4876281;29;20115;-85
2024/03/08 01:41:53;;;;;;;63.72;21.08;;;1.40;99.90;;;-0.18;100.00;102124.06;4827816;29;20064;-84
2024/03/08 01:44:43;;;;;;;77.82;21.98;;;1.40;99.90;;;-0.19;100.00;102130.06;4822636;29;20094;-86
2024/03/08 01:47:12;;;;;;;71.20;20.33;;;1.40;99.90;;;-0.22;100.00;102124.03;4795199;29;20642;-86
2024/03/08 01:49:53;;;;;;;74.47;21.48;;;1.30;99.90;;;-0.26;100.00;102119.63;4844701;29;20522;-85
2024/03/08 01:52:43;;;;;;;78.40;22.00;;;;;;;-0.27;100.00;102115.28;4865792;29;20089;-86
2024/03/08 01:55:15;;;;;;;70.43;23.33;;;;;;;-0.29;100.00;102113.50;4835277;29;20045;-87
2024/03/08 01:57:53;;;;;;;83.15;22.27;;;1.30;99.90;;;-0.31;100.00;102113.47;4839753;29;20048;-84
2024/03/08 02:00:32;;;;;;;75.30;26.20;;;;;;;-0.27;100.00;102110.09;4895678;29;20054;-86
2024/03/08 02:03:11;;;;;;;82.05;25.95;;;;;;;-0.24;100.00;102115.34;4838816;29;20086;-86
2024/03/08 02:05:51;;;;;;;168.23;60.55;;;;;;;-0.24;100.00;102105.00;4813866;29;20041;-86
2024/03/08 02:11:13;;;;;;;187.45;61.15;;;1.30;99.90;;;-0.23;100.00;102104.13;4874439;29;20046;-86
2024/03/08 02:14:22;;;;;;;155.30;53.47;;;1.30;99.90;;;-0.25;100.00;102103.22;4882887;29;20146;-86
2024/03/08 02:17:13;;;;;;;164.18;55.92;;;1.30;99.90;;;-0.30;100.00;102099.69;4810837;29;20094;-86
2024/03/08 02:19:54;;;;;;;166.55;53.78;;;;;;;-0.33;100.00;102104.78;4831436;29;20047;-88
2024/03/08 02:22:23;;;;;;;159.48;53.75;;;;;;;-0.37;100.00;102102.97;4833464;29;21478;-87
2024/03/08 02:25:03;;;;;;;264.35;87.47;;;1.20;99.90;;;-0.41;100.00;102096.03;4743061;29;20042;-87
2024/03/08 02:28:42;;;;;;;197.82;68.18;;;1.20;99.90;;;-0.46;100.00;102090.72;4801988;29;20580;-87
2024/03/08 02:31:13;;;;;;;160.10;53.38;;;1.10;99.90;;;-0.52;100.00;102092.31;4591262;30;20041;-88
2024/03/08 02:34:34;;;;;;;178.57;65.88;;;1.10;99.90;;;-0.57;100.00;102083.59;4615549;30;20573;-88
2024/03/08 02:37:03;;;;;;;74.82;27.38;;;1.00;99.90;;;-0.59;100.00;102086.13;4581276;30;20047;-86
2024/03/08 02:39:45;;;;;;;89.07;32.40;;;;;;;-0.60;100.00;102088.69;4603731;30;20747;-87
2024/03/08 02:42:23;;;;;;;82.70;25.92;;;;;;;-0.64;100.00;102083.47;4614840;30;20065;-86
2024/03/08 02:46:05;;;;;;;83.03;26.77;;;0.90;99.90;;;-0.72;100.00;102079.81;4576957;30;20112;-87
2024/03/08 02:48:34;;;;;;;63.13;23.40;;;;;;;-0.72;100.00;102085.00;4502941;31;20093;-86
2024/03/08 02:55:21;;;;;;;157.57;24.20;;;;;;;-0.81;100.00;102086.53;4502317;31;20051;-86
2024/03/08 02:58:04;;;;;;;185.68;20.13;;;;;;;-0.90;100.00;102077.72;4512911;31;20140;-89
2024/03/08 03:00:34;;;;;;;63.42;21.42;;;;;;;-0.94;100.00;102081.06;4472678;31;20062;-87
2024/03/08 03:04:13;;;;;;;72.43;21.55;;;0.60;99.90;;;-0.96;100.00;102068.97;4530529;31;20049;-87
2024/03/08 03:10:42;;;;;;;66.57;20.55;;;;;;;-0.99;100.00;102071.44;4702606;30;20073;-87
2024/03/08 03:16:32;;;;;;;83.22;24.60;;;;;;;-0.85;100.00;102070.94;4715831;30;20060;-87
2024/03/08 03:20:32;;;;;;;;;;;;;;;;;;;;;
2024/03/08 03:36:48;;;;;;;69.35;22.05;;;1.40;99.90;;;0.03;100.00;102066.66;5043323;27;20410;-83
2024/03/08 03:39:22;;;;;;;83.30;25.00;;;1.60;99.90;;;0.10;100.00;102063.31;4996706;28;20459;-82
2024/03/08 03:41:51;;;;;;;80.43;25.95;;;1.70;99.90;;;0.20;100.00;102066.09;4966130;28;20025;-82
2024/03/08 03:44:18;;;;;;;97.85;27.48;;;1.80;99.90;;;0.31;100.00;102063.69;4960641;28;20042;-82
2024/03/08 03:46:53;;;;;;;93.00;26.98;;;1.90;99.90;;;0.39;100.00;102062.13;4957637;28;20087;-82
2024/03/08 03:49:19;;;;;;;86.28;28.05;;;1.90;99.90;;;0.46;100.00;102055.31;5005835;28;20093;-82
2024/03/08 03:51:52;;;;;;;95.05;29.17;;;2.00;99.90;;;0.53;100.00;102057.16;4954159;28;20464;-81
2024/03/08 03:54:19;;;;;;;90.97;29.38;;;2.10;99.90;;;0.61;100.00;102065.91;4959673;28;20571;-82
2024/03/08 03:56:45;;;;;;;109.13;30.30;;;2.10;99.90;;;0.64;100.00;102053.84;5004499;28;20038;-80
2024/03/08 03:59:11;;;;;;;105.40;30.92;;;2.20;99.90;;;0.70;100.00;102061.72;4924936;28;20759;-81
2024/03/08 04:01:45;;;;;;;110.95;29.45;;;2.20;99.90;;;0.73;100.00;102057.44;4961694;28;20064;-81
2024/03/08 04:04:12;;;;;;;102.85;31.73;;;2.30;99.90;;;0.77;100.00;102060.97;4972452;28;20069;-81
2024/03/08 04:06:38;;;;;;;113.88;29.52;;;2.30;99.90;;;0.79;100.00;102054.94;4941210;28;20047;-81
2024/03/08 04:09:04;;;;;;;123.93;32.97;;;2.30;99.90;;;0.84;100.00;102054.16;4936168;28;20104;-81
2024/03/08 04:11:39;;;;;;;106.07;31.13;;;2.40;99.90;;;0.87;100.00;102060.25;4947153;28;20022;-80
2024/03/08 04:14:05;;;;;;;110.07;31.52;;;2.40;99.90;;;0.88;100.00;102055.94;4965142;28;20080;-80
2024/03/08 04:16:31;;;;;;;105.57;31.40;;;2.40;99.90;;;0.91;100.00;102050.81;4982192;28;20041;-81
2024/03/08 04:19:08;;;;;;;112.40;31.50;;;2.40;99.90;;;0.93;100.00;102055.16;4984660;28;20553;-80
2024/03/08 04:21:34;;;;;;;122.63;30.88;;;2.40;99.90;;;0.93;100.00;102052.56;4979220;28;21430;-80
2024/03/08 04:23:59;;;;;;;128.90;31.58;;;2.50;99.90;;;0.93;100.00;102049.09;4954709;28;20102;-81
2024/03/08 04:26:25;;;;;;;118.00;31.92;;;2.50;99.90;;;0.95;100.00;102050.88;4985403;28;20108;-81
2024/03/08 04:28:56;;;;;;;120.65;31.98;;;2.50;99.90;;;0.96;100.00;102055.19;4983512;28;20085;-81
2024/03/08 04:31:22;;;;;;;116.05;31.70;;;2.50;99.90;;;0.97;100.00;102049.19;4991374;28;20037;-81
2024/03/08 04:33:48;;;;;;;111.25;32.25;;;2.50;99.90;;;0.98;100.00;102045.72;4989207;28;20060;-81
2024/03/08 04:36:14;;;;;;;97.35;31.73;;;2.50;99.90;;;1.00;100.00;102051.81;4961531;28;20044;-80
2024/03/08 04:38:52;;;;;;;154.38;30.55;;;2.50;99.90;;;1.02;100.00;102051.84;4969130;28;20056;-80
2024/03/08 04:41:20;;;;;;;150.52;29.48;;;2.50;99.90;;;1.01;100.00;102039.69;4974291;28;20037;-80
2024/03/08 04:43:46;;;;;;;155.05;32.38;;;2.50;99.90;;;1.03;100.00;102044.06;5006424;28;20038;-81
2024/03/08 04:46:17;;;;;;;148.05;32.45;;;2.50;99.90;;;1.01;100.00;102039.69;4954619;28;20064;-80
2024/03/08 04:48:43;;;;;;;160.43;33.60;;;2.50;99.90;;;1.01;100.00;102032.78;4961708;28;20053;-81
2024/03/08 04:51:10;;;;;;;128.73;33.30;;;2.60;99.90;;;1.05;100.00;102032.84;4961738;28;20038;-81
2024/03/08 04:53:35;;;;;;;120.57;32.13;;;2.60;99.90;;;1.08;100.00;102038.06;4945765;28;20252;-81
2024/03/08 04:56:06;;;;;;;160.48;33.47;;;2.60;99.90;;;1.09;100.00;102032.03;5022233;28;20034;-81
2024/03/08 04:58:35;;;;;;;125.07;33.03;;;2.60;99.90;;;1.09;100.00;102029.44;4975875;28;20049;-82
2024/03/08 05:01:02;;;;;;;183.25;32.35;;;2.60;99.90;;;1.10;100.00;102025.97;5006578;28;20053;-81
2024/03/08 05:03:28;;;;;;;161.63;34.30;;;2.60;99.90;;;1.10;100.00;102025.97;4969428;28;20045;-81
2024/03/08 05:05:54;;;;;;;118.75;33.05;;;2.60;99.90;;;1.09;100.00;102025.13;4951143;28;20112;-81
2024/03/08 05:08:28;;;;;;;109.47;32.17;;;2.60;99.90;;;1.11;100.00;102022.56;4969114;28;20061;-81
2024/03/08 05:10:54;;;;;;;135.55;34.28;;;2.70;99.90;;;1.13;100.00;102026.91;4992164;28;20037;-80
2024/03/08 05:13:34;;;;;;;216.18;34.20;;;2.60;99.90;;;1.14;100.00;102025.19;4982911;28;20589;-82
2024/03/08 05:16:00;;;;;;;130.80;33.78;;;2.70;99.90;;;1.15;100.00;102024.34;5012023;28;20034;-81
2024/03/08 05:18:32;;;;;;;129.13;33.28;;;2.60;99.90;;;1.15;100.00;102024.34;4959327;28;20036;-81
2024/03/08 05:20:57;;;;;;;158.30;35.53;;;2.70;99.90;;;1.16;100.00;102029.53;4986211;28;20037;-80
2024/03/08 05:23:24;;;;;;;119.10;33.75;;;2.70;99.90;;;1.17;100.00;102023.50;4964372;28;20493;-81
2024/03/08 05:25:50;;;;;;;134.18;34.92;;;2.70;99.90;;;1.18;100.00;102027.81;4993207;28;20064;-81
2024/03/08 05:28:16;;;;;;;129.88;32.50;;;2.70;99.90;;;1.19;100.00;102027.00;4962015;28;20560;-81
2024/03/08 05:30:42;;;;;;;136.45;33.45;;;2.70;99.90;;;1.22;100.00;102027.00;4984393;28;20039;-82
2024/03/08 05:33:15;;;;;;;133.63;34.83;;;2.70;99.90;;;1.26;100.00;102027.06;4939830;28;20532;-80
2024/03/08 05:35:41;;;;;;;214.40;35.40;;;2.70;99.90;;;1.25;100.00;102026.19;4938730;28;20034;-81
2024/03/08 05:38:06;;;;;;;114.72;32.85;;;2.80;99.90;;;1.27;100.00;102031.41;4950367;28;20037;-81
2024/03/08 05:40:33;;;;;;;109.65;32.35;;;2.80;99.90;;;1.29;100.00;102029.69;4979051;28;20100;-81
2024/03/08 05:43:09;;;;;;;113.57;33.92;;;;;;;1.30;100.00;102028.84;4941152;28;20041;-81
2024/03/08 05:45:35;;;;;;;92.30;32.50;;;2.80;99.90;;;1.33;100.00;102029.75;4942138;28;20038;-81
2024/03/08 05:48:01;;;;;;;127.68;34.47;;;2.80;99.90;;;1.37;100.00;102030.66;4957396;28;20100;-81
2024/03/08 05:50:34;;;;;;;130.68;32.97;;;2.90;99.90;;;1.38;100.00;102029.78;4965506;28;20037;-81
2024/03/08 05:53:02;;;;;;;144.40;33.55;;;2.90;99.90;;;1.36;100.00;102035.00;4976386;28;20112;-81
2024/03/08 05:55:29;;;;;;;111.93;33.40;;;2.90;99.90;;;1.38;100.00;102035.00;4993805;28;20056;-81
2024/03/08 05:58:02;;;;;;;107.95;33.70;;;2.90;99.90;;;1.41;100.00;102033.31;4982582;28;20504;-80
2024/03/08 06:00:31;;;;;;;145.80;33.35;;;2.90;99.90;;;1.42;100.00;102040.22;4966925;28;20034;-80
2024/03/08 06:02:58;;;;;;;103.03;34.20;;;2.90;99.90;;;1.43;100.00;102036.81;4991745;28;20513;-81
2024/03/08 06:05:31;;;;;;;200.27;33.35;;;2.90;99.90;;;1.46;100.00;102038.56;4930788;28;20043;-81
2024/03/08 06:07:57;;;;;;;136.13;33.65;;;3.00;99.90;;;1.44;100.00;102038.53;4983124;28;21513;-81
2024/03/08 06:10:23;;;;;;;160.52;34.97;;;3.00;99.90;;;1.44;100.00;102038.53;4954300;28;20434;-81
2024/03/08 06:12:52;;;;;;;229.23;35.25;;;3.00;99.90;;;1.46;100.00;102035.09;4981001;28;20033;-81
2024/03/08 06:15:22;;;;;;;113.22;32.10;;;3.00;99.90;;;1.46;100.00;102040.28;4969517;28;20026;-81
2024/03/08 06:17:48;;;;;;;134.00;34.13;;;2.90;99.90;;;1.48;100.00;102036.00;4964720;28;20041;-81
2024/03/08 06:20:14;;;;;;;198.57;35.80;;;3.00;99.90;;;1.49;100.00;102036.00;4943983;28;20213;-81
2024/03/08 06:22:44;;;;;;;601.55;44.38;;;3.00;99.90;;;1.50;100.00;102040.34;4924044;28;20045;-80
2024/03/08 06:25:13;;;;;;;192.63;33.88;;;;;;;1.50;100.00;102036.88;4943386;28;20037;-82
2024/03/08 06:27:43;;;;;;;280.55;36.08;;;3.00;99.90;;;1.49;100.00;102035.13;4971250;28;20591;-81
2024/03/08 06:30:10;;;;;;;246.82;40.45;;;3.00;99.90;;;1.49;100.00;102037.72;4946160;28;20473;-81
2024/03/08 06:32:42;;;;;;;288.00;36.13;;;3.00;99.90;;;1.48;100.00;102028.19;4959897;28;20061;-81
2024/03/08 06:35:11;;;;;;;264.80;37.33;;;3.00;99.90;;;1.48;100.00;102025.59;4923429;28;20061;-81
2024/03/08 06:37:44;;;;;;;269.70;39.38;;;3.00;99.90;;;1.50;100.00;102039.47;4978557;28;20124;-81
2024/03/08 06:40:13;;;;;;;360.80;39.88;;;3.00;99.90;;;1.54;100.00;102023.09;4926864;28;20057;-80
2024/03/08 06:42:41;;;;;;;160.95;37.35;;;3.00;99.90;;;1.57;100.00;102025.69;4958189;28;20041;-81
2024/03/08 06:45:20;;;;;;;204.93;39.15;;;3.10;99.90;;;1.61;100.00;102027.47;4952774;28;20485;-81
2024/03/08 06:47:56;;;;;;;213.40;39.13;;;3.10;99.90;;;1.65;100.00;102021.47;4973513;28;20042;-81
2024/03/08 06:50:22;;;;;;;332.02;39.08;;;3.10;99.90;;;1.67;100.00;102027.56;4972030;23;20067;-81
2024/03/08 06:52:53;;;;;;;297.25;40.25;;;3.20;99.90;;;1.66;100.00;102024.94;5043952;28;20032;-81
2024/03/08 06:55:21;;;;;;;172.95;38.17;;;3.20;99.90;;;1.68;100.00;102029.28;5001647;28;20033;-82
2024/03/08 06:57:47;;;;;;;333.23;41.13;;;3.20;99.90;;;1.71;100.00;102028.47;5032134;28;20036;-81
2024/03/08 07:00:18;;;;;;;267.15;42.33;;;3.20;99.90;;;1.72;100.00;102031.06;5006653;28;20048;-81
2024/03/08 07:02:53;;;;;;;322.80;41.63;;;3.20;99.90;;;1.75;100.00;102032.81;5029491;28;20040;-81
2024/03/08 07:05:23;;;;;;;281.33;39.63;;;3.20;99.90;;;1.79;100.00;102034.59;5036532;28;20048;-82
2024/03/08 07:07:58;;;;;;;242.68;37.05;;;3.20;99.90;;;1.73;100.00;102026.72;4989757;28;20092;-82
2024/03/08 07:10:24;;;;;;;288.33;39.30;;;3.20;99.90;;;1.74;100.00;102031.09;4972931;28;20033;-81
2024/03/08 07:13:01;;;;;;;321.50;41.65;;;3.20;99.90;;;1.75;100.00;102031.13;4992078;28;20028;-83
2024/03/08 07:15:28;;;;;;;178.13;38.22;;;3.30;99.90;;;1.75;100.00;102025.03;4952773;28;20034;-82
2024/03/08 07:18:01;;;;;;;164.20;37.08;;;3.30;99.90;;;1.76;100.00;102032.84;4964594;28;20388;-82
2024/03/08 07:20:28;;;;;;;178.88;41.38;;;3.20;99.90;;;1.75;100.00;102038.91;5039747;28;20028;-82
2024/03/08 07:22:54;;;;;;;164.27;40.38;;;3.30;99.90;;;1.74;100.00;102024.16;5013174;28;20039;-83
2024/03/08 07:25:20;;;;;;;192.13;40.10;;;3.20;99.90;;;1.69;100.00;102020.66;4982968;28;20333;-83
2024/03/08 07:27:55;;;;;;;152.95;40.83;;;3.20;99.90;;;1.75;100.00;102023.31;4949110;28;20056;-83
2024/03/08 07:34:07;;;;;;;171.68;43.00;;;3.40;99.90;;;1.96;100.00;102032.16;5020957;28;20100;-82
2024/03/08 07:36:42;;;;;;;174.05;41.05;;;3.40;99.90;;;2.02;100.00;102027.03;5012429;28;20039;-83
2024/03/08 07:39:13;;;;;;;161.85;43.00;;;3.50;99.90;;;2.05;100.00;102025.34;4992126;28;20053;-83
2024/03/08 07:41:48;;;;;;;151.73;42.72;;;3.50;99.90;;;2.02;100.00;102021.84;4933546;28;20460;-83
2024/03/08 07:44:14;;;;;;;157.30;44.03;;;3.50;99.90;;;2.01;100.00;102025.31;4945728;28;20049;-84
2024/03/08 07:46:41;;;;;;;160.07;44.78;;;3.50;99.90;;;2.05;100.00;102017.56;4902706;28;20086;-84
2024/03/08 07:49:11;;;;;;;178.40;44.03;;;3.50;99.90;;;2.09;100.00;102013.25;4946798;28;20035;-84
2024/03/08 07:51:38;;;;;;;154.13;44.13;;;3.60;99.90;;;2.12;100.00;102015.03;4998084;23;20061;-83
2024/03/08 07:54:04;;;;;;;179.45;47.08;;;3.60;99.90;;;2.11;100.00;102014.13;4968572;28;20464;-81
2024/03/08 07:56:33;;;;;;;143.80;44.95;;;3.70;99.90;;;2.20;100.00;102011.63;4978987;28;20033;-83
2024/03/08 07:59:08;;;;;;;147.90;44.85;;;3.70;99.90;;;2.25;100.00;102012.53;4968326;28;20080;-83
2024/03/08 08:01:34;;;;;;;148.87;45.63;;;3.70;99.90;;;2.30;100.00;102012.56;4958638;28;20045;-84
2024/03/08 08:04:12;;;;;;;142.45;44.22;;;3.80;99.90;;;2.38;100.00;102010.91;4983117;28;20042;-84
2024/03/08 08:06:51;;;;;;;147.15;46.55;;;3.90;99.90;;;2.49;100.00;102010.97;4933032;28;20043;-83
2024/03/08 08:09:28;;;;;;;140.65;46.50;;;4.00;99.90;;;2.53;100.00;102011.84;4947602;28;20055;-84
2024/03/08 08:11:55;;;;;;;138.85;46.95;;;4.00;99.90;;;2.59;100.00;102007.59;4970808;28;20033;-82
2024/03/08 08:14:21;;;;;;;128.77;44.17;;;4.10;99.90;;;2.71;100.00;102008.53;4960458;28;20083;-83
2024/03/08 08:16:48;;;;;;;136.02;45.55;;;4.20;99.90;;;2.77;100.00;102016.38;4980846;28;20038;-83
2024/03/08 08:19:26;;;;;;;130.13;47.70;;;4.20;99.90;;;2.90;100.00;102006.91;4902697;28;20064;-82
2024/03/08 08:21:51;;;;;;;120.20;44.17;;;4.30;99.90;;;3.00;100.00;102011.28;4914231;28;20030;-83
2024/03/08 08:24:17;;;;;;;118.95;46.60;;;4.40;99.90;;;3.03;100.00;102006.97;4942840;28;21007;-83
2024/03/08 08:26:48;;;;;;;119.60;46.95;;;4.40;99.90;;;3.03;100.00;102008.72;4926872;28;20029;-83
2024/03/08 08:29:14;;;;;;;117.60;48.38;;;4.50;99.90;;;3.14;100.00;102004.44;4896904;28;20041;-83
2024/03/08 08:31:40;;;;;;;113.80;46.13;;;4.60;99.90;;;3.32;100.00;102007.97;4940537;28;20033;-83
2024/03/08 08:34:07;;;;;;;119.45;47.90;;;4.70;99.90;;;3.43;100.00;102009.75;4964475;28;20074;-82
2024/03/08 08:36:33;;;;;;;117.90;48.90;;;4.90;99.90;;;3.70;100.00;102001.16;4911664;28;20030;-83
2024/03/08 08:39:13;;;;;;;107.63;46.92;;;5.10;99.90;;;4.04;100.00;102003.81;4925465;28;20026;-82
2024/03/08 08:41:47;;;;;;;95.60;45.15;;;5.50;99.90;;;4.35;100.00;102008.16;4931875;28;20139;-82
2024/03/08 08:44:13;;;;;;;95.10;42.85;;;5.70;99.90;;;4.48;100.00;102008.16;4942376;28;20056;-83
2024/03/08 08:46:39;;;;;;;86.20;41.72;;;5.80;99.90;;;4.70;100.00;102008.13;4943703;28;20112;-83
2024/03/08 08:49:06;;;;;;;87.15;44.88;;;6.00;99.90;;;4.93;100.00;102008.06;4942361;28;20030;-82
2024/03/08 08:51:37;;;;;;;83.45;42.03;;;6.20;99.90;;;5.12;100.00;102009.75;4983284;28;20108;-82
2024/03/08 08:54:03;;;;;;;82.85;43.22;;;6.40;99.90;;;5.38;100.00;101997.44;4931778;28;20540;-82
2024/03/08 08:56:32;;;;;;;87.47;43.63;;;6.60;99.90;;;5.49;99.86;102000.91;4946453;28;20116;-82
2024/03/08 08:59:16;;;;;;;;;;;;;;;;;;;;;
2024/03/08 09:01:50;;;;;;;75.30;41.03;;;7.00;99.90;;;5.90;96.56;102008.50;4958063;28;21314;-81
2024/03/08 09:04:16;;;;;;;76.68;38.70;;;7.10;99.90;;;5.91;94.61;102002.38;4969758;28;20579;-81
2024/03/08 09:06:45;;;;;;;67.40;37.20;;;7.10;99.90;;;6.00;93.58;101995.38;4951742;28;20042;-83
2024/03/08 09:09:13;;;;;;;73.70;39.08;;;7.30;99.90;;;6.23;93.42;102001.31;4964944;28;20505;-81
2024/03/08 09:11:42;;;;;;;65.30;36.22;;;7.40;99.90;;;6.37;92.45;101998.56;4917795;28;20038;-81
2024/03/08 09:14:09;;;;;;;70.05;36.75;;;7.60;99.90;;;6.55;90.85;101990.56;4953272;28;20043;-82
2024/03/08 09:16:37;;;;;;;60.58;32.90;;;7.80;99.90;;;6.78;90.78;101989.44;4966935;28;20236;-82
2024/03/08 09:19:06;;;;;;;63.13;32.42;;;8.00;99.90;;;6.97;89.07;101997.97;4950869;28;20510;-83
2024/03/08 09:21:34;;;;;;;63.45;33.95;;;8.20;99.90;;;7.17;87.41;102000.34;4971458;28;20545;-81
2024/03/08 09:24:01;;;;;;;59.55;29.00;;;8.30;99.90;;;7.27;84.28;101988.88;4928780;28;20052;-82
2024/03/08 09:26:34;;;;;;;55.00;28.45;;;8.50;99.90;;;7.37;82.76;101989.63;4930222;28;20069;-82
2024/03/08 09:29:00;;;;;;;49.45;27.10;;;8.50;99.90;;;7.30;79.34;101987.97;4936614;28;20060;-81
2024/03/08 09:31:36;;;;;;;59.75;28.48;;;8.60;99.90;;;7.39;78.85;101988.72;4965872;28;20034;-80
2024/03/08 09:34:02;;;;;;;51.30;27.02;;;8.70;99.90;;;7.63;79.04;101994.53;4956983;28;20065;-81
2024/03/08 09:36:32;;;;;;;51.80;26.70;;;8.90;99.90;;;7.84;78.98;101992.47;4934755;28;20117;-81
2024/03/08 09:38:58;;;;;;;52.95;25.33;;;9.10;99.90;;;8.07;78.54;102002.59;4955637;28;20033;-80
2024/03/08 09:41:31;;;;;;;48.65;25.55;;;9.30;99.90;;;8.19;77.11;101998.03;4980974;28;20030;-80
2024/03/08 09:44:00;;;;;;;44.17;24.52;;;9.40;99.90;;;8.31;76.31;101996.09;4963187;28;20030;-82
2024/03/08 09:46:32;;;;;;;44.80;23.75;;;9.40;99.90;;;8.26;72.91;102004.03;4945300;28;20045;-81
2024/03/08 09:48:58;;;;;;;40.10;20.25;;;9.40;99.90;;;8.12;68.82;102003.38;4929854;28;20509;-81
2024/03/08 09:51:29;;;;;;;44.30;22.55;;;9.30;99.90;;;7.92;68.02;102001.94;4989914;28;20034;-81
2024/03/08 09:54:04;;;;;;;39.22;20.80;;;9.30;99.90;;;7.99;69.33;101985.25;4937367;28;20041;-80
2024/03/08 09:56:41;;;;;;;45.22;22.90;;;9.30;99.90;;;8.01;67.49;101998.31;4903191;28;20043;-80
2024/03/08 10:01:56;;;;;;;45.50;24.15;;;9.50;99.90;;;8.33;70.18;101986.44;4997976;28;20058;-81
2024/03/08 10:04:31;;;;;;;49.83;22.65;;;9.60;99.90;;;8.51;69.81;101994.03;4963477;28;20030;-81
2024/03/08 10:07:04;;;;;;;46.65;24.63;;;9.70;99.90;;;8.57;67.48;102000.91;4960343;28;20076;-80
2024/03/08 10:09:33;;;;;;;43.83;22.98;;;9.70;99.90;;;8.60;66.46;102011.38;4946095;28;20038;-81
2024/03/08 10:11:59;;;;;;;44.70;23.75;;;9.90;99.90;;;8.70;68.02;101999.78;4967662;28;20041;-81
2024/03/08 10:14:33;;;;;;;46.83;22.63;;;10.00;99.90;;;8.87;68.45;101996.00;4944860;28;20436;-80
2024/03/08 10:17:02;;;;;;;42.03;20.90;;;10.10;99.90;;;8.97;65.08;102018.56;4970297;28;20042;-81
2024/03/08 10:19:31;;;;;;;42.65;20.23;;;10.10;99.90;;;8.92;62.93;102020.41;4948786;28;20096;-81
2024/03/08 10:22:00;;;;;;;41.42;20.73;;;10.20;99.90;;;8.98;63.93;102012.41;4925330;28;20029;-81
2024/03/08 10:24:26;;;;;;;40.47;20.23;;;10.20;99.90;;;8.87;61.44;102024.88;4927738;28;20088;-80
2024/03/08 10:27:04;;;;;;;45.65;21.73;;;10.20;99.90;;;9.00;64.17;102018.50;4956407;28;20112;-80
2024/03/08 10:29:33;;;;;;;40.35;20.80;;;10.30;99.90;;;9.12;64.00;102017.41;4964294;28;20034;-80
2024/03/08 10:32:02;;;;;;;43.22;21.77;;;10.30;99.90;;;9.12;62.63;102034.03;4965094;28;20061;-81
2024/03/08 10:34:33;;;;;;;42.72;22.05;;;10.40;99.90;;;9.16;63.30;102026.97;4975887;28;20034;-80
2024/03/08 10:37:05;;;;;;;40.53;19.95;;;10.20;99.90;;;8.92;61.10;102030.91;4959369;28;20093;-81
2024/03/08 10:39:41;;;;;;;38.40;17.45;;;10.10;99.90;;;8.72;60.38;102033.91;5020505;28;20030;-81
2024/03/08 10:42:17;;;;;;;36.58;18.88;;;10.10;99.90;;;8.80;61.68;102024.13;4932696;28;20106;-80
2024/03/08 10:44:50;;;;;;;;;;;;;;;8.64;59.54;102036.69;4980861;28;20521;-81
2024/03/08 10:47:30;;;;;;;37.20;17.35;;;10.00;99.90;;;8.67;61.14;102035.78;4972266;28;19913;-81
2024/03/08 10:50:20;;;;;;;35.15;18.23;;;9.90;99.90;;;8.66;61.04;102036.66;4943959;28;20406;-80
2024/03/08 10:53:01;;;;;;;27.20;12.18;;;9.90;99.90;;;8.43;59.22;102045.78;4938794;28;20108;-79
2024/03/08 10:55:28;;;;;;;33.78;15.32;;;9.70;99.90;;;8.21;58.75;102037.38;4943458;28;20079;-80
2024/03/08 10:57:54;;;;;;;33.80;15.55;;;9.60;99.90;;;8.11;58.96;102033.16;4951860;28;20511;-80
2024/03/08 11:00:32;;;;;;;32.35;15.45;;;9.50;99.90;;;8.09;58.78;102042.81;4939424;28;20123;-80
2024/03/08 11:02:58;;;;;;;26.70;14.10;;;9.50;99.90;;;8.14;59.33;102033.09;4924107;28;20113;-79
2024/03/08 11:05:48;;;;;;;29.08;15.13;;;9.50;99.90;;;8.17;59.68;102031.31;4962610;28;20182;-80